sensor_id;sensor_type;location;lat;lon;timestamp;pressure;altitude;pressure_sealevel;temperature;humidity
65666;BME280;52365;47.464;18.976;2023-03-02T00:00:31;100380.28;;;3.78;59.94
65666;BME280;52365;47.464;18.976;2023-03-02T00:01:09;100381.41;;;3.77;59.48
65666;BME280;52365;47.464;18.976;2023-03-02T00:02:23;100386.78;;;3.70;59.74
65666;BME280;52365;47.464;18.976;2023-03-02T00:03:00;100379.56;;;3.71;59.93
65666;BME280;52365;47.464;18.976;2023-03-02T00:03:38;100384.09;;;3.74;59.69
65666;BME280;52365;47.464;18.976;2023-03-02T00:04:19;100381.81;;;3.76;59.43
65666;BME280;52365;47.464;18.976;2023-03-02T00:04:57;100375.31;;;3.77;59.13
65666;BME280;52365;47.464;18.976;2023-03-02T00:05:34;100371.91;;;3.73;59.24
65666;BME280;52365;47.464;18.976;2023-03-02T00:06:10;100372.69;;;3.73;59.43
65666;BME280;52365;47.464;18.976;2023-03-02T00:06:47;100372.69;;;3.73;59.66
65666;BME280;52365;47.464;18.976;2023-03-02T00:07:31;100375.34;;;3.73;59.79
65666;BME280;52365;47.464;18.976;2023-03-02T00:08:08;100365.81;;;3.76;59.65
65666;BME280;52365;47.464;18.976;2023-03-02T00:08:45;100374.53;;;3.80;58.97
65666;BME280;52365;47.464;18.976;2023-03-02T00:09:21;100376.47;;;3.76;58.86
65666;BME280;52365;47.464;18.976;2023-03-02T00:09:58;100375.72;;;3.75;58.71
65666;BME280;52365;47.464;18.976;2023-03-02T00:10:35;100379.56;;;3.71;58.35
65666;BME280;52365;47.464;18.976;2023-03-02T00:11:12;100376.16;;;3.67;58.21
65666;BME280;52365;47.464;18.976;2023-03-02T00:11:50;100378.06;;;3.66;58.80
65666;BME280;52365;47.464;18.976;2023-03-02T00:12:27;100373.88;;;3.65;58.88
65666;BME280;52365;47.464;18.976;2023-03-02T00:13:04;100372.72;;;3.70;58.05
65666;BME280;52365;47.464;18.976;2023-03-02T00:13:40;100372.34;;;3.64;57.87
65666;BME280;52365;47.464;18.976;2023-03-02T00:14:17;100363.63;;;3.60;57.05
65666;BME280;52365;47.464;18.976;2023-03-02T00:14:53;100369.75;;;3.57;56.91
65666;BME280;52365;47.464;18.976;2023-03-02T00:15:29;100369.31;;;3.62;57.54
65666;BME280;52365;47.464;18.976;2023-03-02T00:16:06;100373.50;;;3.63;57.84
65666;BME280;52365;47.464;18.976;2023-03-02T00:16:42;100373.50;;;3.63;58.16
65666;BME280;52365;47.464;18.976;2023-03-02T00:17:18;100372.75;;;3.59;58.31
65666;BME280;52365;47.464;18.976;2023-03-02T00:18:02;100375.75;;;3.68;58.29
65666;BME280;52365;47.464;18.976;2023-03-02T00:18:38;100369.28;;;3.69;57.66
65666;BME280;52365;47.464;18.976;2023-03-02T00:19:14;100373.47;;;3.67;57.31
65666;BME280;52365;47.464;18.976;2023-03-02T00:19:50;100363.56;;;3.67;57.11
65666;BME280;52365;47.464;18.976;2023-03-02T00:20:26;100378.09;;;3.56;57.66
65666;BME280;52365;47.464;18.976;2023-03-02T00:21:02;100370.13;;;3.56;58.08
65666;BME280;52365;47.464;18.976;2023-03-02T00:21:38;100368.59;;;3.54;58.13
65666;BME280;52365;47.464;18.976;2023-03-02T00:22:16;100369.00;;;3.49;58.50
65666;BME280;52365;47.464;18.976;2023-03-02T00:22:52;100370.16;;;3.52;58.56
65666;BME280;52365;47.464;18.976;2023-03-02T00:23:28;100373.91;;;3.58;58.24
65666;BME280;52365;47.464;18.976;2023-03-02T00:24:04;100367.84;;;3.54;58.17
65666;BME280;52365;47.464;18.976;2023-03-02T00:24:40;100369.75;;;3.53;58.18
65666;BME280;52365;47.464;18.976;2023-03-02T00:25:17;100362.50;;;3.54;58.19
65666;BME280;52365;47.464;18.976;2023-03-02T00:25:53;100364.50;;;3.43;58.08
65666;BME280;52365;47.464;18.976;2023-03-02T00:26:34;100367.53;;;3.45;57.99
65666;BME280;52365;47.464;18.976;2023-03-02T00:27:11;100366.00;;;3.44;58.18
65666;BME280;52365;47.464;18.976;2023-03-02T00:27:47;100368.69;;;3.44;58.22
65666;BME280;52365;47.464;18.976;2023-03-02T00:28:23;100360.28;;;3.42;58.39
65666;BME280;52365;47.464;18.976;2023-03-02T00:28:59;100360.28;;;3.42;58.57
65666;BME280;52365;47.464;18.976;2023-03-02T00:29:36;100365.28;;;3.40;58.68
65666;BME280;52365;47.464;18.976;2023-03-02T00:30:13;100364.53;;;3.36;58.74
65666;BME280;52365;47.464;18.976;2023-03-02T00:30:49;100361.50;;;3.34;58.91
65666;BME280;52365;47.464;18.976;2023-03-02T00:31:25;100354.63;;;3.36;58.94
65666;BME280;52365;47.464;18.976;2023-03-02T00:32:01;100359.97;;;3.33;58.97
65666;BME280;52365;47.464;18.976;2023-03-02T00:32:38;100356.94;;;3.34;59.03
65666;BME280;52365;47.464;18.976;2023-03-02T00:33:14;100356.56;;;3.32;59.19
65666;BME280;52365;47.464;18.976;2023-03-02T00:33:52;100352.37;;;3.27;59.26
65666;BME280;52365;47.464;18.976;2023-03-02T00:34:31;100358.84;;;3.30;58.89
65666;BME280;52365;47.464;18.976;2023-03-02T00:35:07;100357.31;;;3.33;58.78
65666;BME280;52365;47.464;18.976;2023-03-02T00:35:43;100352.37;;;3.31;58.87
65666;BME280;52365;47.464;18.976;2023-03-02T00:36:21;100351.59;;;3.34;58.90
65666;BME280;52365;47.464;18.976;2023-03-02T00:36:57;100356.19;;;3.34;58.78
65666;BME280;52365;47.464;18.976;2023-03-02T00:37:35;100352.72;;;3.33;58.58
65666;BME280;52365;47.464;18.976;2023-03-02T00:38:11;100346.28;;;3.34;58.14
65666;BME280;52365;47.464;18.976;2023-03-02T00:38:48;100348.56;;;3.28;58.05
65666;BME280;52365;47.464;18.976;2023-03-02T00:39:24;100341.31;;;3.33;57.85
65666;BME280;52365;47.464;18.976;2023-03-02T00:40:01;100353.88;;;3.36;57.63
65666;BME280;52365;47.464;18.976;2023-03-02T00:40:46;100347.78;;;3.39;57.70
65666;BME280;52365;47.464;18.976;2023-03-02T00:41:22;100341.66;;;3.42;57.20
65666;BME280;52365;47.464;18.976;2023-03-02T00:41:58;100338.97;;;3.42;56.75
65666;BME280;52365;47.464;18.976;2023-03-02T00:42:35;100348.13;;;3.41;56.78
65666;BME280;52365;47.464;18.976;2023-03-02T00:43:12;100340.53;;;3.39;56.68
65666;BME280;52365;47.464;18.976;2023-03-02T00:43:49;100350.81;;;3.37;57.04
65666;BME280;52365;47.464;18.976;2023-03-02T00:44:25;100345.87;;;3.39;57.15
65666;BME280;52365;47.464;18.976;2023-03-02T00:45:02;100343.19;;;3.43;57.25
65666;BME280;52365;47.464;18.976;2023-03-02T00:45:39;100348.87;;;3.45;57.25
65666;BME280;52365;47.464;18.976;2023-03-02T00:46:17;100339.75;;;3.42;57.46
65666;BME280;52365;47.464;18.976;2023-03-02T00:46:54;100347.03;;;3.38;57.78
65666;BME280;52365;47.464;18.976;2023-03-02T00:47:33;100339.03;;;3.35;58.13
65666;BME280;52365;47.464;18.976;2023-03-02T00:48:09;100345.53;;;3.30;58.29
65666;BME280;52365;47.464;18.976;2023-03-02T00:48:45;100336.06;;;3.25;58.56
65666;BME280;52365;47.464;18.976;2023-03-02T00:49:21;100336.06;;;3.25;58.59
65666;BME280;52365;47.464;18.976;2023-03-02T00:49:58;100334.91;;;3.23;58.43
65666;BME280;52365;47.464;18.976;2023-03-02T00:50:34;100336.44;;;3.20;58.21
65666;BME280;52365;47.464;18.976;2023-03-02T00:51:16;100328.06;;;3.25;58.14
65666;BME280;52365;47.464;18.976;2023-03-02T00:51:52;100331.84;;;3.24;58.11
65666;BME280;52365;47.464;18.976;2023-03-02T00:52:30;100331.09;;;3.24;58.23
65666;BME280;52365;47.464;18.976;2023-03-02T00:53:07;100336.06;;;3.25;58.33
65666;BME280;52365;47.464;18.976;2023-03-02T00:53:44;100335.31;;;3.21;58.40
65666;BME280;52365;47.464;18.976;2023-03-02T00:54:20;100338.72;;;3.25;58.56
65666;BME280;52365;47.464;18.976;2023-03-02T00:54:56;100334.50;;;3.24;58.57
65666;BME280;52365;47.464;18.976;2023-03-02T00:55:32;100336.41;;;3.24;58.68
65666;BME280;52365;47.464;18.976;2023-03-02T00:56:08;100329.94;;;3.28;58.38
65666;BME280;52365;47.464;18.976;2023-03-02T00:56:45;100329.56;;;3.26;58.29
65666;BME280;52365;47.464;18.976;2023-03-02T00:57:21;100339.06;;;3.27;58.32
65666;BME280;52365;47.464;18.976;2023-03-02T00:57:57;100337.53;;;3.34;58.24
65666;BME280;52365;47.464;18.976;2023-03-02T00:58:33;100333.72;;;3.35;58.21
65666;BME280;52365;47.464;18.976;2023-03-02T00:59:11;100331.41;;;3.33;58.38
65666;BME280;52365;47.464;18.976;2023-03-02T01:00:03;100337.19;;;3.24;58.57
65666;BME280;52365;47.464;18.976;2023-03-02T01:00:39;100336.84;;;3.15;58.77
65666;BME280;52365;47.464;18.976;2023-03-02T01:01:15;100340.31;;;3.09;59.01
65666;BME280;52365;47.464;18.976;2023-03-02T01:02:01;100331.97;;;3.03;59.16
65666;BME280;52365;47.464;18.976;2023-03-02T01:02:37;100339.56;;;3.01;59.12
65666;BME280;52365;47.464;18.976;2023-03-02T01:03:19;100329.34;;;2.96;59.11
65666;BME280;52365;47.464;18.976;2023-03-02T01:03:55;100326.66;;;2.99;59.26
65666;BME280;52365;47.464;18.976;2023-03-02T01:04:37;100326.66;;;2.96;59.48
65666;BME280;52365;47.464;18.976;2023-03-02T01:05:14;100327.78;;;3.02;59.49
65666;BME280;52365;47.464;18.976;2023-03-02T01:05:50;100322.44;;;3.02;59.56
65666;BME280;52365;47.464;18.976;2023-03-02T01:06:30;100319.78;;;3.02;59.62
65666;BME280;52365;47.464;18.976;2023-03-02T01:07:14;100320.94;;;3.05;59.42
65666;BME280;52365;47.464;18.976;2023-03-02T01:07:51;100320.53;;;3.06;59.33
65666;BME280;52365;47.464;18.976;2023-03-02T01:08:27;100317.50;;;3.04;58.97
65666;BME280;52365;47.464;18.976;2023-03-02T01:09:03;100316.34;;;3.12;58.91
65666;BME280;52365;47.464;18.976;2023-03-02T01:09:40;100323.56;;;3.08;58.77
65666;BME280;52365;47.464;18.976;2023-03-02T01:10:17;100316.72;;;3.07;58.78
65666;BME280;52365;47.464;18.976;2023-03-02T01:10:53;100312.53;;;3.06;58.93
65666;BME280;52365;47.464;18.976;2023-03-02T01:11:29;100312.94;;;3.08;58.77
65666;BME280;52365;47.464;18.976;2023-03-02T01:12:06;100311.03;;;3.05;58.30
65666;BME280;52365;47.464;18.976;2023-03-02T01:12:45;100306.84;;;3.08;57.90
65666;BME280;52365;47.464;18.976;2023-03-02T01:13:21;100320.53;;;3.06;57.50
65666;BME280;52365;47.464;18.976;2023-03-02T01:13:57;100307.59;;;3.08;57.43
65666;BME280;52365;47.464;18.976;2023-03-02T01:14:33;100308.34;;;3.09;57.70
65666;BME280;52365;47.464;18.976;2023-03-02T01:15:09;100302.28;;;3.08;58.17
65666;BME280;52365;47.464;18.976;2023-03-02T01:15:46;100303.03;;;3.05;58.48
65666;BME280;52365;47.464;18.976;2023-03-02T01:16:22;100298.47;;;3.06;58.51
65666;BME280;52365;47.464;18.976;2023-03-02T01:16:58;100304.19;;;3.04;58.49
65666;BME280;52365;47.464;18.976;2023-03-02T01:17:34;100300.03;;;2.96;58.71
65666;BME280;52365;47.464;18.976;2023-03-02T01:18:10;100306.91;;;2.93;58.74
65666;BME280;52365;47.464;18.976;2023-03-02T01:18:46;100290.91;;;2.93;58.63
65666;BME280;52365;47.464;18.976;2023-03-02T01:19:22;100297.00;;;2.94;58.62
65666;BME280;52365;47.464;18.976;2023-03-02T01:19:59;100301.59;;;2.90;58.73
65666;BME280;52365;47.464;18.976;2023-03-02T01:20:35;100294.00;;;2.88;58.90
65666;BME280;52365;47.464;18.976;2023-03-02T01:21:13;100292.09;;;2.89;58.60
65666;BME280;52365;47.464;18.976;2023-03-02T01:21:49;100290.97;;;2.90;58.44
65666;BME280;52365;47.464;18.976;2023-03-02T01:22:25;100298.56;;;2.88;58.58
65666;BME280;52365;47.464;18.976;2023-03-02T01:23:01;100281.06;;;2.90;58.78
65666;BME280;52365;47.464;18.976;2023-03-02T01:23:38;100281.84;;;2.87;59.03
65666;BME280;52365;47.464;18.976;2023-03-02T01:24:14;100285.63;;;2.90;59.07
65666;BME280;52365;47.464;18.976;2023-03-02T01:24:50;100279.16;;;2.91;58.83
65666;BME280;52365;47.464;18.976;2023-03-02T01:25:26;100280.66;;;2.92;58.89
65666;BME280;52365;47.464;18.976;2023-03-02T01:26:02;100287.50;;;2.93;58.92
65666;BME280;52365;47.464;18.976;2023-03-02T01:26:38;100287.91;;;2.88;59.13
65666;BME280;52365;47.464;18.976;2023-03-02T01:27:15;100287.16;;;2.91;59.13
65666;BME280;52365;47.464;18.976;2023-03-02T01:27:51;100287.50;;;2.89;58.95
65666;BME280;52365;47.464;18.976;2023-03-02T01:28:27;100277.94;;;3.06;58.55
65666;BME280;52365;47.464;18.976;2023-03-02T01:29:03;100271.84;;;3.06;58.24
65666;BME280;52365;47.464;18.976;2023-03-02T01:29:39;100276.81;;;3.00;58.11
65666;BME280;52365;47.464;18.976;2023-03-02T01:30:16;100281.00;;;3.05;58.15
65666;BME280;52365;47.464;18.976;2023-03-02T01:30:52;100277.97;;;2.99;58.26
65666;BME280;52365;47.464;18.976;2023-03-02T01:31:29;100271.94;;;2.88;58.59
65666;BME280;52365;47.464;18.976;2023-03-02T01:32:06;100274.66;;;2.77;59.67
65666;BME280;52365;47.464;18.976;2023-03-02T01:32:42;100279.19;;;2.76;60.15
65666;BME280;52365;47.464;18.976;2023-03-02T01:33:18;100273.88;;;2.80;60.42
65666;BME280;52365;47.464;18.976;2023-03-02T01:33:55;100274.25;;;2.78;60.48
65666;BME280;52365;47.464;18.976;2023-03-02T01:34:31;100267.78;;;2.83;60.75
65666;BME280;52365;47.464;18.976;2023-03-02T01:35:07;100273.84;;;2.87;60.71
65666;BME280;52365;47.464;18.976;2023-03-02T01:35:45;100265.13;;;2.83;60.69
65666;BME280;52365;47.464;18.976;2023-03-02T01:36:22;100267.41;;;2.81;60.84
65666;BME280;52365;47.464;18.976;2023-03-02T01:36:58;100268.13;;;2.85;60.83
65666;BME280;52365;47.464;18.976;2023-03-02T01:37:34;100273.09;;;2.87;60.75
65666;BME280;52365;47.464;18.976;2023-03-02T01:38:10;100268.94;;;2.82;60.82
65666;BME280;52365;47.464;18.976;2023-03-02T01:38:47;100271.59;;;2.78;60.95
65666;BME280;52365;47.464;18.976;2023-03-02T01:39:23;100265.53;;;2.74;61.13
65666;BME280;52365;47.464;18.976;2023-03-02T01:39:59;100260.53;;;2.87;60.94
65666;BME280;52365;47.464;18.976;2023-03-02T01:40:37;100262.78;;;2.92;60.62
65666;BME280;52365;47.464;18.976;2023-03-02T01:41:13;100265.09;;;2.87;60.64
65666;BME280;52365;47.464;18.976;2023-03-02T01:41:51;100266.63;;;2.81;60.82
65666;BME280;52365;47.464;18.976;2023-03-02T01:42:33;100262.47;;;2.80;61.00
65666;BME280;52365;47.464;18.976;2023-03-02T01:43:14;100264.78;;;2.70;61.17
65666;BME280;52365;47.464;18.976;2023-03-02T01:43:50;100264.44;;;2.61;61.35
65666;BME280;52365;47.464;18.976;2023-03-02T01:44:46;100261.78;;;2.65;61.39
65666;BME280;52365;47.464;18.976;2023-03-02T01:46:29;100261.44;;;2.59;61.46
65666;BME280;52365;47.464;18.976;2023-03-02T01:47:25;100261.44;;;2.59;61.37
65666;BME280;52365;47.464;18.976;2023-03-02T01:48:03;100260.66;;;2.59;61.54
65666;BME280;52365;47.464;18.976;2023-03-02T01:48:58;100263.69;;;2.61;61.76
65666;BME280;52365;47.464;18.976;2023-03-02T01:49:36;100259.16;;;2.54;62.06
65666;BME280;52365;47.464;18.976;2023-03-02T01:50:21;100259.91;;;2.55;62.19
65666;BME280;52365;47.464;18.976;2023-03-02T01:50:59;100254.56;;;2.55;62.12
65666;BME280;52365;47.464;18.976;2023-03-02T01:51:41;100252.31;;;2.57;62.14
65666;BME280;52365;47.464;18.976;2023-03-02T01:52:19;100254.56;;;2.55;62.05
65666;BME280;52365;47.464;18.976;2023-03-02T01:52:55;100247.75;;;2.57;61.94
65666;BME280;52365;47.464;18.976;2023-03-02T01:53:34;100254.56;;;2.58;61.97
65666;BME280;52365;47.464;18.976;2023-03-02T01:54:15;100248.13;;;2.59;62.04
65666;BME280;52365;47.464;18.976;2023-03-02T01:55:00;100254.56;;;2.58;62.18
65666;BME280;52365;47.464;18.976;2023-03-02T01:55:37;100245.06;;;2.68;62.11
65666;BME280;52365;47.464;18.976;2023-03-02T01:56:17;100247.31;;;2.69;61.98
65666;BME280;52365;47.464;18.976;2023-03-02T01:56:56;100240.84;;;2.67;61.98
65666;BME280;52365;47.464;18.976;2023-03-02T01:57:35;100244.63;;;2.73;61.91
65666;BME280;52365;47.464;18.976;2023-03-02T01:58:18;100243.91;;;2.69;61.74
65666;BME280;52365;47.464;18.976;2023-03-02T01:58:58;100246.91;;;2.74;61.70
65666;BME280;52365;47.464;18.976;2023-03-02T01:59:38;100240.44;;;2.75;61.64
65666;BME280;52365;47.464;18.976;2023-03-02T02:00:25;100243.94;;;2.58;61.68
65666;BME280;52365;47.464;18.976;2023-03-02T02:01:03;100251.97;;;2.47;62.24
65666;BME280;52365;47.464;18.976;2023-03-02T02:01:42;100242.06;;;2.48;62.32
65666;BME280;52365;47.464;18.976;2023-03-02T02:02:19;100240.16;;;2.52;62.26
65666;BME280;52365;47.464;18.976;2023-03-02T02:02:58;100237.13;;;2.50;62.28
65666;BME280;52365;47.464;18.976;2023-03-02T02:03:46;100236.34;;;2.49;62.30
65666;BME280;52365;47.464;18.976;2023-03-02T02:04:25;100241.34;;;2.40;62.55
65666;BME280;52365;47.464;18.976;2023-03-02T02:05:02;100239.44;;;2.44;62.57
65666;BME280;52365;47.464;18.976;2023-03-02T02:05:41;100239.81;;;2.43;62.62
65666;BME280;52365;47.464;18.976;2023-03-02T02:06:26;100243.22;;;2.50;62.62
65666;BME280;52365;47.464;18.976;2023-03-02T02:07:05;100238.66;;;2.51;62.56
65666;BME280;52365;47.464;18.976;2023-03-02T02:07:42;100234.84;;;2.52;62.64
65666;BME280;52365;47.464;18.976;2023-03-02T02:08:18;100233.34;;;2.51;62.62
65666;BME280;52365;47.464;18.976;2023-03-02T02:08:56;100234.84;;;2.48;62.64
65666;BME280;52365;47.464;18.976;2023-03-02T02:09:39;100237.91;;;2.47;62.77
65666;BME280;52365;47.464;18.976;2023-03-02T02:10:16;100233.34;;;2.51;62.78
65666;BME280;52365;47.464;18.976;2023-03-02T02:10:53;100235.59;;;2.52;62.77
65666;BME280;52365;47.464;18.976;2023-03-02T02:11:30;100236.34;;;2.53;62.44
65666;BME280;52365;47.464;18.976;2023-03-02T02:12:12;100234.09;;;2.48;62.52
65666;BME280;52365;47.464;18.976;2023-03-02T02:12:48;100232.22;;;2.41;62.69
65666;BME280;52365;47.464;18.976;2023-03-02T02:13:24;100238.28;;;2.45;62.80
65666;BME280;52365;47.464;18.976;2023-03-02T02:14:01;100233.69;;;2.49;62.79
65666;BME280;52365;47.464;18.976;2023-03-02T02:14:38;100238.66;;;2.47;62.78
65666;BME280;52365;47.464;18.976;2023-03-02T02:15:14;100236.41;;;2.46;62.78
65666;BME280;52365;47.464;18.976;2023-03-02T02:15:50;100238.28;;;2.45;62.80
65666;BME280;52365;47.464;18.976;2023-03-02T02:16:28;100237.56;;;2.38;62.86
65666;BME280;52365;47.464;18.976;2023-03-02T02:17:06;100239.06;;;2.35;62.90
65666;BME280;52365;47.464;18.976;2023-03-02T02:17:43;100237.91;;;2.40;63.01
65666;BME280;52365;47.464;18.976;2023-03-02T02:18:19;100234.91;;;2.38;62.99
65666;BME280;52365;47.464;18.976;2023-03-02T02:18:55;100236.41;;;2.35;62.94
65666;BME280;52365;47.464;18.976;2023-03-02T02:19:40;100234.16;;;2.34;62.86
65666;BME280;52365;47.464;18.976;2023-03-02T02:20:36;100237.19;;;2.36;62.88
65666;BME280;52365;47.464;18.976;2023-03-02T02:21:13;100236.03;;;2.37;62.57
65666;BME280;52365;47.464;18.976;2023-03-02T02:21:49;100233.37;;;2.37;62.60
65666;BME280;52365;47.464;18.976;2023-03-02T02:22:45;100228.81;;;2.37;62.68
65666;BME280;52365;47.464;18.976;2023-03-02T02:24:19;100231.88;;;2.32;62.84
65666;BME280;52365;47.464;18.976;2023-03-02T02:25:01;100231.91;;;2.21;63.13
65666;BME280;52365;47.464;18.976;2023-03-02T02:26:37;100230.75;;;2.33;63.00
65666;BME280;52365;47.464;18.976;2023-03-02T02:27:15;100227.28;;;2.33;62.83
65666;BME280;52365;47.464;18.976;2023-03-02T02:27:51;100222.00;;;2.25;62.96
65666;BME280;52365;47.464;18.976;2023-03-02T02:28:34;100234.94;;;2.23;63.08
65666;BME280;52365;47.464;18.976;2023-03-02T02:29:16;100236.06;;;2.22;63.24
65666;BME280;52365;47.464;18.976;2023-03-02T02:29:57;100235.31;;;2.18;63.20
65666;BME280;52365;47.464;18.976;2023-03-02T02:30:35;100231.50;;;2.19;63.27
65666;BME280;52365;47.464;18.976;2023-03-02T02:31:20;100229.66;;;2.16;63.18
65666;BME280;52365;47.464;18.976;2023-03-02T02:32:02;100231.91;;;2.18;63.20
65666;BME280;52365;47.464;18.976;2023-03-02T02:32:42;100237.22;;;2.21;63.11
65666;BME280;52365;47.464;18.976;2023-03-02T02:33:22;100232.66;;;2.15;63.04
65666;BME280;52365;47.464;18.976;2023-03-02T02:34:16;100230.78;;;2.15;63.16
65666;BME280;52365;47.464;18.976;2023-03-02T02:35:08;100234.16;;;2.23;63.00
65666;BME280;52365;47.464;18.976;2023-03-02T02:35:48;100237.22;;;2.21;62.94
65666;BME280;52365;47.464;18.976;2023-03-02T02:36:30;100238.72;;;2.30;62.85
65666;BME280;52365;47.464;18.976;2023-03-02T02:37:19;100232.66;;;2.25;62.96
65666;BME280;52365;47.464;18.976;2023-03-02T02:38:02;100233.06;;;2.20;62.96
65666;BME280;52365;47.464;18.976;2023-03-02T02:38:39;100228.09;;;2.30;62.88
65666;BME280;52365;47.464;18.976;2023-03-02T02:39:37;100230.00;;;2.25;62.78
65666;BME280;52365;47.464;18.976;2023-03-02T02:40:21;100228.84;;;2.30;62.84
65666;BME280;52365;47.464;18.976;2023-03-02T02:41:01;100227.69;;;2.31;62.78
65666;BME280;52365;47.464;18.976;2023-03-02T02:41:38;100228.84;;;2.26;62.65
65666;BME280;52365;47.464;18.976;2023-03-02T02:42:23;100227.34;;;2.25;62.56
65666;BME280;52365;47.464;18.976;2023-03-02T02:43:01;100227.34;;;2.29;62.56
65666;BME280;52365;47.464;18.976;2023-03-02T02:43:37;100230.75;;;2.33;62.57
65666;BME280;52365;47.464;18.976;2023-03-02T02:44:15;100228.09;;;2.30;62.47
65666;BME280;52365;47.464;18.976;2023-03-02T02:44:55;100230.75;;;2.26;62.55
65666;BME280;52365;47.464;18.976;2023-03-02T02:45:32;100224.28;;;2.23;62.65
65666;BME280;52365;47.464;18.976;2023-03-02T02:46:09;100225.81;;;2.24;62.71
65666;BME280;52365;47.464;18.976;2023-03-02T02:46:46;100216.72;;;2.18;62.53
65666;BME280;52365;47.464;18.976;2023-03-02T02:47:22;100226.94;;;2.23;62.75
65666;BME280;52365;47.464;18.976;2023-03-02T02:47:59;100221.62;;;2.23;62.75
65666;BME280;52365;47.464;18.976;2023-03-02T02:48:35;100222.03;;;2.18;62.75
65666;BME280;52365;47.464;18.976;2023-03-02T02:49:54;100225.84;;;2.17;62.92
65666;BME280;52365;47.464;18.976;2023-03-02T02:50:33;100224.31;;;2.16;62.87
65666;BME280;52365;47.464;18.976;2023-03-02T02:51:14;100228.44;;;2.28;62.58
65666;BME280;52365;47.464;18.976;2023-03-02T02:51:51;100231.50;;;2.19;62.65
65666;BME280;52365;47.464;18.976;2023-03-02T02:52:28;100222.81;;;2.15;62.88
65666;BME280;52365;47.464;18.976;2023-03-02T02:53:10;100226.19;;;2.19;62.81
65666;BME280;52365;47.464;18.976;2023-03-02T02:53:59;100224.34;;;2.13;62.71
65666;BME280;52365;47.464;18.976;2023-03-02T02:54:36;100228.84;;;2.26;62.52
65666;BME280;52365;47.464;18.976;2023-03-02T02:55:15;100232.25;;;2.23;62.47
65666;BME280;52365;47.464;18.976;2023-03-02T02:55:56;100229.25;;;2.21;62.59
65666;BME280;52365;47.464;18.976;2023-03-02T02:56:36;100225.09;;;2.13;62.74
65666;BME280;52365;47.464;18.976;2023-03-02T02:57:14;100229.66;;;2.09;62.90
65666;BME280;52365;47.464;18.976;2023-03-02T02:57:55;100228.13;;;2.15;62.88
65666;BME280;52365;47.464;18.976;2023-03-02T02:58:42;100220.53;;;2.10;62.95
65666;BME280;52365;47.464;18.976;2023-03-02T02:59:20;100221.28;;;2.14;62.94
65666;BME280;52365;47.464;18.976;2023-03-02T02:59:59;100228.50;;;2.17;62.93
65666;BME280;52365;47.464;18.976;2023-03-02T03:00:36;100223.56;;;2.12;62.81
65666;BME280;52365;47.464;18.976;2023-03-02T03:01:15;100220.53;;;2.10;62.71
65666;BME280;52365;47.464;18.976;2023-03-02T03:01:51;100222.06;;;2.08;62.65
65666;BME280;52365;47.464;18.976;2023-03-02T03:02:29;100219.03;;;2.06;62.81
65666;BME280;52365;47.464;18.976;2023-03-02T03:03:18;100223.19;;;2.10;62.91
65666;BME280;52365;47.464;18.976;2023-03-02T03:04:05;100217.91;;;2.07;63.06
65666;BME280;52365;47.464;18.976;2023-03-02T03:04:41;100215.97;;;2.18;62.96
65666;BME280;52365;47.464;18.976;2023-03-02T03:05:17;100215.94;;;2.21;62.75
65666;BME280;52365;47.464;18.976;2023-03-02T03:05:54;100223.16;;;2.24;62.54
65666;BME280;52365;47.464;18.976;2023-03-02T03:06:33;100217.84;;;2.21;62.43
65666;BME280;52365;47.464;18.976;2023-03-02T03:07:20;100225.84;;;2.21;62.52
65666;BME280;52365;47.464;18.976;2023-03-02T03:09:16;100213.69;;;2.16;62.33
65666;BME280;52365;47.464;18.976;2023-03-02T03:10:35;100209.87;;;2.17;62.30
65666;BME280;52365;47.464;18.976;2023-03-02T03:11:17;100206.06;;;2.22;62.05
65666;BME280;52365;47.464;18.976;2023-03-02T03:12:01;100204.56;;;2.17;62.10
65666;BME280;52365;47.464;18.976;2023-03-02T03:12:38;100197.00;;;2.01;62.32
65666;BME280;52365;47.464;18.976;2023-03-02T03:13:14;100203.81;;;2.10;62.16
65666;BME280;52365;47.464;18.976;2023-03-02T03:14:26;100205.72;;;2.20;62.05
65666;BME280;52365;47.464;18.976;2023-03-02T03:15:05;100209.94;;;1.96;62.21
65666;BME280;52365;47.464;18.976;2023-03-02T03:15:42;100201.19;;;2.03;62.41
65666;BME280;52365;47.464;18.976;2023-03-02T03:16:18;100201.56;;;2.05;62.49
65666;BME280;52365;47.464;18.976;2023-03-02T03:16:55;100204.97;;;2.05;62.35
65666;BME280;52365;47.464;18.976;2023-03-02T03:17:31;100206.47;;;2.06;62.20
65666;BME280;52365;47.464;18.976;2023-03-02T03:18:07;100211.06;;;2.02;62.13
65666;BME280;52365;47.464;18.976;2023-03-02T03:18:45;100211.84;;;2.03;62.35
65666;BME280;52365;47.464;18.976;2023-03-02T03:19:30;100220.53;;;2.17;62.13
65666;BME280;52365;47.464;18.976;2023-03-02T03:20:07;100211.03;;;2.13;62.11
65666;BME280;52365;47.464;18.976;2023-03-02T03:20:44;100215.22;;;2.10;62.12
65666;BME280;52365;47.464;18.976;2023-03-02T03:21:20;100209.13;;;2.10;62.10
65666;BME280;52365;47.464;18.976;2023-03-02T03:21:58;100209.19;;;1.99;62.19
65666;BME280;52365;47.464;18.976;2023-03-02T03:22:37;100214.50;;;1.99;62.30
65666;BME280;52365;47.464;18.976;2023-03-02T03:23:13;100213.34;;;2.00;62.36
65666;BME280;52365;47.464;18.976;2023-03-02T03:23:49;100218.25;;;2.05;62.34
65666;BME280;52365;47.464;18.976;2023-03-02T03:24:27;100212.19;;;2.12;62.19
65666;BME280;52365;47.464;18.976;2023-03-02T03:25:04;100215.22;;;2.14;62.03
65666;BME280;52365;47.464;18.976;2023-03-02T03:25:40;100218.22;;;2.19;61.84
65666;BME280;52365;47.464;18.976;2023-03-02T03:26:17;100219.00;;;2.20;61.68
65666;BME280;52365;47.464;18.976;2023-03-02T03:26:53;100217.56;;;1.87;61.99
65666;BME280;52365;47.464;18.976;2023-03-02T03:27:30;100217.94;;;1.71;62.68
65666;BME280;52365;47.464;18.976;2023-03-02T03:28:06;100221.34;;;1.79;62.86